sensor_id;sensor_type;location;lat;lon;timestamp;P1;durP1;ratioP1;P2;durP2;ratioP2
21170;SDS011;10743;52.160;20.910;2024-01-06T00:00:17;56.17;;;14.70;;
21170;SDS011;10743;52.160;20.910;2024-01-06T00:02:44;37.47;;;12.53;;
21170;SDS011;10743;52.160;20.910;2024-01-06T00:05:11;33.70;;;11.90;;
21170;SDS011;10743;52.160;20.910;2024-01-06T00:07:39;37.80;;;12.87;;
21170;SDS011;10743;52.160;20.910;2024-01-06T00:10:06;48.37;;;14.77;;
21170;SDS011;10743;52.160;20.910;2024-01-06T00:12:33;50.10;;;15.63;;
21170;SDS011;10743;52.160;20.910;2024-01-06T00:15:00;28.10;;;11.20;;
21170;SDS011;10743;52.160;20.910;2024-01-06T00:17:28;29.77;;;12.37;;
21170;SDS011;10743;52.160;20.910;2024-01-06T00:19:55;22.40;;;8.77;;
21170;SDS011;10743;52.160;20.910;2024-01-06T00:22:22;18.00;;;7.90;;
21170;SDS011;10743;52.160;20.910;2024-01-06T00:24:49;20.90;;;8.33;;
21170;SDS011;10743;52.160;20.910;2024-01-06T00:27:16;16.77;;;7.87;;
21170;SDS011;10743;52.160;20.910;2024-01-06T00:29:43;18.57;;;7.73;;
21170;SDS011;10743;52.160;20.910;2024-01-06T00:32:10;21.10;;;8.03;;
21170;SDS011;10743;52.160;20.910;2024-01-06T00:34:38;19.13;;;7.73;;
21170;SDS011;10743;52.160;20.910;2024-01-06T00:37:05;18.60;;;7.53;;
21170;SDS011;10743;52.160;20.910;2024-01-06T00:39:32;18.53;;;8.03;;
21170;SDS011;10743;52.160;20.910;2024-01-06T00:41:59;19.93;;;8.60;;
21170;SDS011;10743;52.160;20.910;2024-01-06T00:44:26;19.83;;;8.37;;
21170;SDS011;10743;52.160;20.910;2024-01-06T00:46:53;21.03;;;8.23;;
21170;SDS011;10743;52.160;20.910;2024-01-06T00:49:20;21.63;;;8.17;;
21170;SDS011;10743;52.160;20.910;2024-01-06T00:51:47;24.47;;;9.13;;
21170;SDS011;10743;52.160;20.910;2024-01-06T00:54:14;19.30;;;8.83;;
21170;SDS011;10743;52.160;20.910;2024-01-06T00:56:41;17.63;;;8.40;;
21170;SDS011;10743;52.160;20.910;2024-01-06T00:59:09;21.67;;;8.53;;
21170;SDS011;10743;52.160;20.910;2024-01-06T01:01:36;20.67;;;8.90;;
21170;SDS011;10743;52.160;20.910;2024-01-06T01:04:03;23.30;;;9.33;;
21170;SDS011;10743;52.160;20.910;2024-01-06T01:06:31;20.37;;;9.23;;
21170;SDS011;10743;52.160;20.910;2024-01-06T01:08:58;19.63;;;8.70;;
21170;SDS011;10743;52.160;20.910;2024-01-06T01:11:25;19.93;;;9.20;;
21170;SDS011;10743;52.160;20.910;2024-01-06T01:13:52;22.30;;;9.33;;
21170;SDS011;10743;52.160;20.910;2024-01-06T01:16:19;20.63;;;9.73;;
21170;SDS011;10743;52.160;20.910;2024-01-06T01:18:46;23.83;;;9.17;;
21170;SDS011;10743;52.160;20.910;2024-01-06T01:21:14;23.83;;;9.57;;
21170;SDS011;10743;52.160;20.910;2024-01-06T01:23:42;21.23;;;8.13;;
21170;SDS011;10743;52.160;20.910;2024-01-06T01:26:09;24.63;;;9.90;;
21170;SDS011;10743;52.160;20.910;2024-01-06T01:28:36;23.67;;;9.43;;
21170;SDS011;10743;52.160;20.910;2024-01-06T01:31:03;26.70;;;10.13;;
21170;SDS011;10743;52.160;20.910;2024-01-06T01:33:31;21.90;;;8.77;;
21170;SDS011;10743;52.160;20.910;2024-01-06T01:35:58;23.83;;;9.80;;
21170;SDS011;10743;52.160;20.910;2024-01-06T01:38:28;29.17;;;9.93;;
21170;SDS011;10743;52.160;20.910;2024-01-06T01:40:55;22.20;;;9.00;;
21170;SDS011;10743;52.160;20.910;2024-01-06T01:43:22;17.97;;;7.73;;
21170;SDS011;10743;52.160;20.910;2024-01-06T01:45:53;23.03;;;8.80;;
21170;SDS011;10743;52.160;20.910;2024-01-06T01:48:21;20.20;;;8.70;;
21170;SDS011;10743;52.160;20.910;2024-01-06T01:50:51;22.50;;;9.50;;
21170;SDS011;10743;52.160;20.910;2024-01-06T01:53:20;15.83;;;7.97;;
21170;SDS011;10743;52.160;20.910;2024-01-06T01:55:50;22.80;;;9.50;;
21170;SDS011;10743;52.160;20.910;2024-01-06T01:58:17;17.50;;;8.77;;
21170;SDS011;10743;52.160;20.910;2024-01-06T02:00:44;18.00;;;8.00;;
21170;SDS011;10743;52.160;20.910;2024-01-06T02:03:12;16.33;;;7.93;;
21170;SDS011;10743;52.160;20.910;2024-01-06T02:05:41;20.77;;;7.67;;
21170;SDS011;10743;52.160;20.910;2024-01-06T02:08:08;19.23;;;7.90;;
21170;SDS011;10743;52.160;20.910;2024-01-06T02:10:35;15.63;;;7.57;;
21170;SDS011;10743;52.160;20.910;2024-01-06T02:13:11;13.37;;;7.00;;
21170;SDS011;10743;52.160;20.910;2024-01-06T02:15:39;17.23;;;7.63;;
21170;SDS011;10743;52.160;20.910;2024-01-06T02:18:07;15.27;;;6.97;;
21170;SDS011;10743;52.160;20.910;2024-01-06T02:20:34;16.67;;;6.90;;
21170;SDS011;10743;52.160;20.910;2024-01-06T02:23:02;17.73;;;7.83;;
21170;SDS011;10743;52.160;20.910;2024-01-06T02:25:29;15.20;;;7.23;;
21170;SDS011;10743;52.160;20.910;2024-01-06T02:27:56;18.80;;;7.70;;
21170;SDS011;10743;52.160;20.910;2024-01-06T02:30:23;12.43;;;6.43;;
21170;SDS011;10743;52.160;20.910;2024-01-06T02:32:51;20.97;;;7.60;;
21170;SDS011;10743;52.160;20.910;2024-01-06T02:35:18;16.07;;;7.23;;
21170;SDS011;10743;52.160;20.910;2024-01-06T02:37:47;18.90;;;7.53;;
21170;SDS011;10743;52.160;20.910;2024-01-06T02:40:14;15.60;;;7.63;;
21170;SDS011;10743;52.160;20.910;2024-01-06T02:42:41;20.87;;;7.97;;
21170;SDS011;10743;52.160;20.910;2024-01-06T02:45:08;14.80;;;7.60;;
21170;SDS011;10743;52.160;20.910;2024-01-06T02:47:36;18.50;;;7.43;;
21170;SDS011;10743;52.160;20.910;2024-01-06T02:50:03;14.30;;;6.80;;
21170;SDS011;10743;52.160;20.910;2024-01-06T02:52:31;14.80;;;6.77;;
21170;SDS011;10743;52.160;20.910;2024-01-06T02:54:58;17.17;;;6.87;;
21170;SDS011;10743;52.160;20.910;2024-01-06T02:57:30;16.97;;;6.80;;
21170;SDS011;10743;52.160;20.910;2024-01-06T02:59:57;16.00;;;6.73;;
21170;SDS011;10743;52.160;20.910;2024-01-06T03:02:24;19.03;;;7.43;;
21170;SDS011;10743;52.160;20.910;2024-01-06T03:04:51;13.23;;;6.27;;
21170;SDS011;10743;52.160;20.910;2024-01-06T03:07:19;14.50;;;7.10;;
21170;SDS011;10743;52.160;20.910;2024-01-06T03:09:46;16.33;;;6.97;;
21170;SDS011;10743;52.160;20.910;2024-01-06T03:12:13;14.27;;;6.70;;
21170;SDS011;10743;52.160;20.910;2024-01-06T03:14:40;14.00;;;6.27;;
21170;SDS011;10743;52.160;20.910;2024-01-06T03:17:07;14.50;;;7.13;;
21170;SDS011;10743;52.160;20.910;2024-01-06T03:19:37;17.90;;;6.73;;
21170;SDS011;10743;52.160;20.910;2024-01-06T03:22:05;16.87;;;6.87;;
21170;SDS011;10743;52.160;20.910;2024-01-06T03:24:32;21.37;;;7.03;;
21170;SDS011;10743;52.160;20.910;2024-01-06T03:26:59;14.70;;;6.03;;
21170;SDS011;10743;52.160;20.910;2024-01-06T03:29:26;19.80;;;7.23;;
21170;SDS011;10743;52.160;20.910;2024-01-06T03:31:53;14.27;;;6.57;;
21170;SDS011;10743;52.160;20.910;2024-01-06T03:34:20;18.13;;;6.67;;
21170;SDS011;10743;52.160;20.910;2024-01-06T03:36:47;18.10;;;6.80;;
21170;SDS011;10743;52.160;20.910;2024-01-06T03:39:14;15.53;;;7.13;;
21170;SDS011;10743;52.160;20.910;2024-01-06T03:41:42;16.67;;;6.80;;
21170;SDS011;10743;52.160;20.910;2024-01-06T03:44:09;14.33;;;6.47;;
21170;SDS011;10743;52.160;20.910;2024-01-06T03:46:36;14.77;;;6.40;;
21170;SDS011;10743;52.160;20.910;2024-01-06T03:49:03;16.17;;;7.20;;
21170;SDS011;10743;52.160;20.910;2024-01-06T03:51:31;14.30;;;7.17;;
21170;SDS011;10743;52.160;20.910;2024-01-06T03:53:58;16.57;;;6.63;;
21170;SDS011;10743;52.160;20.910;2024-01-06T03:56:25;16.30;;;7.27;;
21170;SDS011;10743;52.160;20.910;2024-01-06T03:58:52;20.33;;;7.17;;
21170;SDS011;10743;52.160;20.910;2024-01-06T04:01:19;12.60;;;6.13;;
21170;SDS011;10743;52.160;20.910;2024-01-06T04:03:47;13.37;;;5.93;;
21170;SDS011;10743;52.160;20.910;2024-01-06T04:06:14;10.93;;;5.73;;
21170;SDS011;10743;52.160;20.910;2024-01-06T04:08:41;10.90;;;5.63;;
21170;SDS011;10743;52.160;20.910;2024-01-06T04:11:08;12.27;;;5.80;;
21170;SDS011;10743;52.160;20.910;2024-01-06T04:13:35;13.30;;;6.53;;
21170;SDS011;10743;52.160;20.910;2024-01-06T04:16:03;14.33;;;6.63;;
21170;SDS011;10743;52.160;20.910;2024-01-06T04:18:30;12.67;;;5.97;;
21170;SDS011;10743;52.160;20.910;2024-01-06T04:20:57;12.30;;;6.43;;
21170;SDS011;10743;52.160;20.910;2024-01-06T04:23:24;12.27;;;5.83;;
21170;SDS011;10743;52.160;20.910;2024-01-06T04:25:52;15.77;;;6.93;;
21170;SDS011;10743;52.160;20.910;2024-01-06T04:28:19;15.40;;;7.40;;
21170;SDS011;10743;52.160;20.910;2024-01-06T04:30:46;13.63;;;6.57;;
21170;SDS011;10743;52.160;20.910;2024-01-06T04:33:13;11.93;;;6.20;;
21170;SDS011;10743;52.160;20.910;2024-01-06T04:35:41;12.87;;;5.90;;
21170;SDS011;10743;52.160;20.910;2024-01-06T04:38:08;14.93;;;7.17;;
21170;SDS011;10743;52.160;20.910;2024-01-06T04:40:35;14.50;;;7.67;;
21170;SDS011;10743;52.160;20.910;2024-01-06T04:43:02;18.30;;;7.33;;
21170;SDS011;10743;52.160;20.910;2024-01-06T04:45:30;12.97;;;6.63;;
21170;SDS011;10743;52.160;20.910;2024-01-06T04:47:57;17.33;;;7.17;;
21170;SDS011;10743;52.160;20.910;2024-01-06T04:50:24;15.17;;;6.80;;
21170;SDS011;10743;52.160;20.910;2024-01-06T04:52:51;16.67;;;7.20;;
21170;SDS011;10743;52.160;20.910;2024-01-06T04:55:18;19.93;;;7.33;;
21170;SDS011;10743;52.160;20.910;2024-01-06T04:57:45;14.57;;;7.13;;
21170;SDS011;10743;52.160;20.910;2024-01-06T05:00:12;16.70;;;6.63;;
21170;SDS011;10743;52.160;20.910;2024-01-06T05:02:40;14.93;;;7.20;;
21170;SDS011;10743;52.160;20.910;2024-01-06T05:05:08;18.03;;;7.17;;
21170;SDS011;10743;52.160;20.910;2024-01-06T05:07:35;14.37;;;6.33;;
21170;SDS011;10743;52.160;20.910;2024-01-06T05:10:02;18.20;;;7.30;;
21170;SDS011;10743;52.160;20.910;2024-01-06T05:12:29;16.47;;;7.50;;
21170;SDS011;10743;52.160;20.910;2024-01-06T05:14:56;22.53;;;8.10;;
21170;SDS011;10743;52.160;20.910;2024-01-06T05:17:23;16.73;;;7.60;;
21170;SDS011;10743;52.160;20.910;2024-01-06T05:19:50;18.73;;;7.37;;
21170;SDS011;10743;52.160;20.910;2024-01-06T05:22:17;19.93;;;7.70;;
21170;SDS011;10743;52.160;20.910;2024-01-06T05:24:44;19.60;;;7.47;;
21170;SDS011;10743;52.160;20.910;2024-01-06T05:27:12;19.27;;;7.10;;
21170;SDS011;10743;52.160;20.910;2024-01-06T05:29:39;25.50;;;9.40;;
21170;SDS011;10743;52.160;20.910;2024-01-06T05:32:06;15.07;;;7.27;;
21170;SDS011;10743;52.160;20.910;2024-01-06T05:34:34;17.63;;;7.73;;
21170;SDS011;10743;52.160;20.910;2024-01-06T05:37:01;16.03;;;7.03;;
21170;SDS011;10743;52.160;20.910;2024-01-06T05:39:28;19.83;;;8.30;;
21170;SDS011;10743;52.160;20.910;2024-01-06T05:41:55;16.17;;;7.10;;
21170;SDS011;10743;52.160;20.910;2024-01-06T05:44:22;21.30;;;7.33;;
21170;SDS011;10743;52.160;20.910;2024-01-06T05:46:50;13.43;;;7.07;;
21170;SDS011;10743;52.160;20.910;2024-01-06T05:49:17;16.77;;;7.37;;
21170;SDS011;10743;52.160;20.910;2024-01-06T05:51:45;16.37;;;7.27;;
21170;SDS011;10743;52.160;20.910;2024-01-06T05:54:12;21.93;;;7.43;;
21170;SDS011;10743;52.160;20.910;2024-01-06T05:56:40;16.03;;;7.20;;
21170;SDS011;10743;52.160;20.910;2024-01-06T05:59:07;14.37;;;6.93;;
21170;SDS011;10743;52.160;20.910;2024-01-06T06:01:34;14.93;;;6.87;;
21170;SDS011;10743;52.160;20.910;2024-01-06T06:04:01;13.97;;;6.63;;
21170;SDS011;10743;52.160;20.910;2024-01-06T06:06:29;14.30;;;6.33;;
21170;SDS011;10743;52.160;20.910;2024-01-06T06:08:57;14.27;;;6.63;;
21170;SDS011;10743;52.160;20.910;2024-01-06T06:11:24;20.43;;;7.20;;
21170;SDS011;10743;52.160;20.910;2024-01-06T06:13:51;13.70;;;6.57;;
21170;SDS011;10743;52.160;20.910;2024-01-06T06:16:18;14.80;;;6.70;;
21170;SDS011;10743;52.160;20.910;2024-01-06T06:18:45;11.50;;;6.33;;
21170;SDS011;10743;52.160;20.910;2024-01-06T06:21:12;15.80;;;6.77;;
21170;SDS011;10743;52.160;20.910;2024-01-06T06:23:39;16.87;;;7.77;;
21170;SDS011;10743;52.160;20.910;2024-01-06T06:26:06;13.80;;;6.17;;
21170;SDS011;10743;52.160;20.910;2024-01-06T06:28:34;15.73;;;6.40;;
21170;SDS011;10743;52.160;20.910;2024-01-06T06:31:02;16.70;;;6.90;;
21170;SDS011;10743;52.160;20.910;2024-01-06T06:33:30;14.53;;;6.40;;
21170;SDS011;10743;52.160;20.910;2024-01-06T06:35:57;21.33;;;7.10;;
21170;SDS011;10743;52.160;20.910;2024-01-06T06:38:27;14.43;;;6.47;;
21170;SDS011;10743;52.160;20.910;2024-01-06T06:40:54;17.40;;;6.43;;
21170;SDS011;10743;52.160;20.910;2024-01-06T06:43:22;17.30;;;6.47;;
21170;SDS011;10743;52.160;20.910;2024-01-06T06:45:49;14.60;;;6.60;;
21170;SDS011;10743;52.160;20.910;2024-01-06T06:48:17;14.67;;;6.80;;
21170;SDS011;10743;52.160;20.910;2024-01-06T06:50:44;16.80;;;6.80;;
21170;SDS011;10743;52.160;20.910;2024-01-06T06:53:11;15.13;;;6.93;;
21170;SDS011;10743;52.160;20.910;2024-01-06T06:55:39;15.83;;;6.47;;
21170;SDS011;10743;52.160;20.910;2024-01-06T06:58:07;14.43;;;6.40;;
21170;SDS011;10743;52.160;20.910;2024-01-06T07:00:34;12.40;;;6.27;;
21170;SDS011;10743;52.160;20.910;2024-01-06T07:03:02;15.03;;;6.13;;
21170;SDS011;10743;52.160;20.910;2024-01-06T07:05:29;19.13;;;6.47;;
21170;SDS011;10743;52.160;20.910;2024-01-06T07:07:56;15.50;;;6.43;;
21170;SDS011;10743;52.160;20.910;2024-01-06T07:10:23;15.10;;;6.73;;
21170;SDS011;10743;52.160;20.910;2024-01-06T07:12:50;13.50;;;6.27;;
21170;SDS011;10743;52.160;20.910;2024-01-06T07:15:17;13.93;;;6.97;;
21170;SDS011;10743;52.160;20.910;2024-01-06T07:17:44;17.60;;;6.90;;
21170;SDS011;10743;52.160;20.910;2024-01-06T07:20:12;16.00;;;7.37;;
21170;SDS011;10743;52.160;20.910;2024-01-06T07:22:39;14.73;;;6.43;;
21170;SDS011;10743;52.160;20.910;2024-01-06T07:25:07;14.23;;;6.97;;
21170;SDS011;10743;52.160;20.910;2024-01-06T07:27:34;15.30;;;6.93;;
21170;SDS011;10743;52.160;20.910;2024-01-06T07:30:02;16.93;;;6.83;;
21170;SDS011;10743;52.160;20.910;2024-01-06T07:32:29;13.30;;;6.87;;
21170;SDS011;10743;52.160;20.910;2024-01-06T07:34:57;19.50;;;7.53;;
21170;SDS011;10743;52.160;20.910;2024-01-06T07:37:25;14.57;;;7.63;;
21170;SDS011;10743;52.160;20.910;2024-01-06T07:39:52;19.30;;;7.47;;
21170;SDS011;10743;52.160;20.910;2024-01-06T07:42:19;17.30;;;7.93;;
21170;SDS011;10743;52.160;20.910;2024-01-06T07:44:47;14.17;;;7.63;;
21170;SDS011;10743;52.160;20.910;2024-01-06T07:47:14;26.13;;;8.40;;
21170;SDS011;10743;52.160;20.910;2024-01-06T07:49:41;17.93;;;7.60;;
21170;SDS011;10743;52.160;20.910;2024-01-06T07:52:08;17.00;;;7.90;;
21170;SDS011;10743;52.160;20.910;2024-01-06T07:54:35;15.00;;;7.37;;
21170;SDS011;10743;52.160;20.910;2024-01-06T07:57:02;17.93;;;7.77;;
21170;SDS011;10743;52.160;20.910;2024-01-06T07:59:29;17.90;;;7.83;;
21170;SDS011;10743;52.160;20.910;2024-01-06T08:01:56;20.37;;;7.70;;
21170;SDS011;10743;52.160;20.910;2024-01-06T08:04:24;21.33;;;8.17;;
21170;SDS011;10743;52.160;20.910;2024-01-06T08:06:51;20.87;;;8.50;;
21170;SDS011;10743;52.160;20.910;2024-01-06T08:09:21;18.80;;;8.60;;
21170;SDS011;10743;52.160;20.910;2024-01-06T08:11:50;28.77;;;8.93;;
21170;SDS011;10743;52.160;20.910;2024-01-06T08:14:17;17.33;;;7.40;;
21170;SDS011;10743;52.160;20.910;2024-01-06T08:16:44;19.13;;;8.23;;
21170;SDS011;10743;52.160;20.910;2024-01-06T08:19:11;18.00;;;8.63;;
21170;SDS011;10743;52.160;20.910;2024-01-06T08:21:38;16.73;;;7.53;;
21170;SDS011;10743;52.160;20.910;2024-01-06T08:24:05;20.13;;;8.40;;
21170;SDS011;10743;52.160;20.910;2024-01-06T08:26:32;17.13;;;7.47;;
21170;SDS011;10743;52.160;20.910;2024-01-06T08:28:59;18.03;;;7.60;;
21170;SDS011;10743;52.160;20.910;2024-01-06T08:31:26;19.50;;;8.17;;
21170;SDS011;10743;52.160;20.910;2024-01-06T08:33:54;16.03;;;7.00;;
21170;SDS011;10743;52.160;20.910;2024-01-06T08:36:21;19.93;;;7.87;;
21170;SDS011;10743;52.160;20.910;2024-01-06T08:38:49;16.70;;;7.30;;
21170;SDS011;10743;52.160;20.910;2024-01-06T08:41:16;16.43;;;7.20;;
21170;SDS011;10743;52.160;20.910;2024-01-06T08:43:43;24.73;;;8.83;;
21170;SDS011;10743;52.160;20.910;2024-01-06T08:46:10;20.17;;;6.97;;
21170;SDS011;10743;52.160;20.910;2024-01-06T08:48:38;19.47;;;6.90;;
21170;SDS011;10743;52.160;20.910;2024-01-06T08:51:05;16.90;;;7.73;;
21170;SDS011;10743;52.160;20.910;2024-01-06T08:53:32;15.17;;;7.43;;
21170;SDS011;10743;52.160;20.910;2024-01-06T08:55:59;18.43;;;7.53;;
21170;SDS011;10743;52.160;20.910;2024-01-06T08:58:26;17.37;;;7.57;;
21170;SDS011;10743;52.160;20.910;2024-01-06T09:00:53;17.27;;;7.10;;
21170;SDS011;10743;52.160;20.910;2024-01-06T09:03:21;16.20;;;7.47;;
21170;SDS011;10743;52.160;20.910;2024-01-06T09:05:53;17.30;;;7.33;;
21170;SDS011;10743;52.160;20.910;2024-01-06T09:08:24;14.40;;;6.73;;
21170;SDS011;10743;52.160;20.910;2024-01-06T09:10:51;16.37;;;6.93;;
21170;SDS011;10743;52.160;20.910;2024-01-06T09:13:21;20.07;;;7.73;;
21170;SDS011;10743;52.160;20.910;2024-01-06T09:15:50;16.57;;;6.70;;
21170;SDS011;10743;52.160;20.910;2024-01-06T09:18:18;18.17;;;7.57;;
21170;SDS011;10743;52.160;20.910;2024-01-06T09:20:45;13.97;;;7.13;;
21170;SDS011;10743;52.160;20.910;2024-01-06T09:23:15;14.77;;;7.23;;
21170;SDS011;10743;52.160;20.910;2024-01-06T09:25:43;17.93;;;7.10;;
21170;SDS011;10743;52.160;20.910;2024-01-06T09:28:10;16.73;;;7.07;;
21170;SDS011;10743;52.160;20.910;2024-01-06T09:30:37;21.93;;;7.50;;
21170;SDS011;10743;52.160;20.910;2024-01-06T09:33:04;17.77;;;7.33;;
21170;SDS011;10743;52.160;20.910;2024-01-06T09:35:32;18.03;;;6.77;;
21170;SDS011;10743;52.160;20.910;2024-01-06T09:37:59;14.33;;;6.87;;
21170;SDS011;10743;52.160;20.910;2024-01-06T09:40:26;16.73;;;7.37;;
21170;SDS011;10743;52.160;20.910;2024-01-06T09:42:53;22.93;;;7.27;;
21170;SDS011;10743;52.160;20.910;2024-01-06T09:45:20;18.43;;;6.97;;
21170;SDS011;10743;52.160;20.910;2024-01-06T09:47:48;20.03;;;8.17;;
21170;SDS011;10743;52.160;20.910;2024-01-06T09:50:18;12.20;;;6.73;;
21170;SDS011;10743;52.160;20.910;2024-01-06T09:52:46;15.23;;;6.33;;
21170;SDS011;10743;52.160;20.910;2024-01-06T09:55:25;10.67;;;6.03;;
21170;SDS011;10743;52.160;20.910;2024-01-06T09:57:53;17.87;;;6.80;;
21170;SDS011;10743;52.160;20.910;2024-01-06T10:00:21;19.73;;;6.70;;
21170;SDS011;10743;52.160;20.910;2024-01-06T10:02:48;15.47;;;6.73;;
21170;SDS011;10743;52.160;20.910;2024-01-06T10:05:21;16.87;;;6.47;;
21170;SDS011;10743;52.160;20.910;2024-01-06T10:07:48;17.60;;;6.13;;
21170;SDS011;10743;52.160;20.910;2024-01-06T10:10:15;19.00;;;7.07;;
21170;SDS011;10743;52.160;20.910;2024-01-06T10:12:42;16.20;;;6.00;;
21170;SDS011;10743;52.160;20.910;2024-01-06T10:15:11;14.27;;;6.00;;
21170;SDS011;10743;52.160;20.910;2024-01-06T10:17:39;16.73;;;6.27;;
21170;SDS011;10743;52.160;20.910;2024-01-06T10:20:11;13.27;;;6.07;;
21170;SDS011;10743;52.160;20.910;2024-01-06T10:22:42;15.40;;;6.10;;
21170;SDS011;10743;52.160;20.910;2024-01-06T10:25:09;16.63;;;6.63;;
21170;SDS011;10743;52.160;20.910;2024-01-06T10:27:38;14.40;;;6.23;;
21170;SDS011;10743;52.160;20.910;2024-01-06T10:30:07;17.23;;;6.73;;
21170;SDS011;10743;52.160;20.910;2024-01-06T10:32:36;15.23;;;6.70;;
21170;SDS011;10743;52.160;20.910;2024-01-06T10:35:04;17.03;;;6.53;;
21170;SDS011;10743;52.160;20.910;2024-01-06T10:37:33;15.00;;;6.63;;
21170;SDS011;10743;52.160;20.910;2024-01-06T10:42:35;19.27;;;6.37;;
21170;SDS011;10743;52.160;20.910;2024-01-06T10:45:04;13.33;;;5.70;;
21170;SDS011;10743;52.160;20.910;2024-01-06T10:47:37;11.93;;;5.67;;
21170;SDS011;10743;52.160;20.910;2024-01-06T10:50:11;17.10;;;6.33;;
21170;SDS011;10743;52.160;20.910;2024-01-06T10:52:40;16.30;;;5.63;;
21170;SDS011;10743;52.160;20.910;2024-01-06T10:55:08;15.23;;;5.90;;
21170;SDS011;10743;52.160;20.910;2024-01-06T10:57:37;10.30;;;5.03;;
21170;SDS011;10743;52.160;20.910;2024-01-06T11:00:05;15.73;;;5.90;;
21170;SDS011;10743;52.160;20.910;2024-01-06T11:02:33;11.37;;;5.73;;
21170;SDS011;10743;52.160;20.910;2024-01-06T11:05:01;68.63;;;12.87;;
21170;SDS011;10743;52.160;20.910;2024-01-06T11:07:28;12.20;;;5.53;;
21170;SDS011;10743;52.160;20.910;2024-01-06T11:10:02;11.77;;;5.70;;
21170;SDS011;10743;52.160;20.910;2024-01-06T11:12:35;14.30;;;6.37;;
21170;SDS011;10743;52.160;20.910;2024-01-06T11:15:03;15.10;;;6.53;;
21170;SDS011;10743;52.160;20.910;2024-01-06T11:17:50;13.57;;;5.67;;
21170;SDS011;10743;52.160;20.910;2024-01-06T11:20:21;13.03;;;5.47;;
21170;SDS011;10743;52.160;20.910;2024-01-06T11:22:49;15.40;;;6.80;;
21170;SDS011;10743;52.160;20.910;2024-01-06T11:25:21;14.17;;;6.47;;
21170;SDS011;10743;52.160;20.910;2024-01-06T11:27:49;16.63;;;6.30;;
21170;SDS011;10743;52.160;20.910;2024-01-06T11:30:21;15.80;;;5.93;;
21170;SDS011;10743;52.160;20.910;2024-01-06T11:32:56;12.60;;;6.57;;
21170;SDS011;10743;52.160;20.910;2024-01-06T11:35:26;19.13;;;6.73;;
21170;SDS011;10743;52.160;20.910;2024-01-06T11:37:55;17.00;;;7.13;;
21170;SDS011;10743;52.160;20.910;2024-01-06T11:40:25;18.30;;;7.30;;
21170;SDS011;10743;52.160;20.910;2024-01-06T11:43:00;21.07;;;6.97;;
21170;SDS011;10743;52.160;20.910;2024-01-06T11:45:40;18.53;;;7.47;;
21170;SDS011;10743;52.160;20.910;2024-01-06T11:48:09;12.40;;;5.53;;
21170;SDS011;10743;52.160;20.910;2024-01-06T11:50:41;17.93;;;6.80;;
21170;SDS011;10743;52.160;20.910;2024-01-06T11:53:08;17.33;;;6.20;;
21170;SDS011;10743;52.160;20.910;2024-01-06T11:55:41;16.07;;;6.93;;
21170;SDS011;10743;52.160;20.910;2024-01-06T11:58:09;12.80;;;5.70;;
21170;SDS011;10743;52.160;20.910;2024-01-06T12:00:36;12.83;;;5.80;;
21170;SDS011;10743;52.160;20.910;2024-01-06T12:03:06;10.97;;;4.77;;
21170;SDS011;10743;52.160;20.910;2024-01-06T12:05:35;8.03;;;4.80;;
21170;SDS011;10743;52.160;20.910;2024-01-06T12:08:03;14.53;;;6.07;;
21170;SDS011;10743;52.160;20.910;2024-01-06T12:10:34;14.10;;;5.43;;
21170;SDS011;10743;52.160;20.910;2024-01-06T12:13:05;13.73;;;5.87;;
21170;SDS011;10743;52.160;20.910;2024-01-06T12:15:37;10.53;;;5.43;;
21170;SDS011;10743;52.160;20.910;2024-01-06T12:18:06;13.57;;;5.87;;
21170;SDS011;10743;52.160;20.910;2024-01-06T12:20:34;9.93;;;5.07;;
21170;SDS011;10743;52.160;20.910;2024-01-06T12:23:01;13.93;;;5.10;;
21170;SDS011;10743;52.160;20.910;2024-01-06T12:25:32;11.20;;;5.00;;
21170;SDS011;10743;52.160;20.910;2024-01-06T12:28:06;10.37;;;4.90;;
21170;SDS011;10743;52.160;20.910;2024-01-06T12:30:33;10.57;;;4.67;;
21170;SDS011;10743;52.160;20.910;2024-01-06T12:33:02;8.00;;;4.77;;
21170;SDS011;10743;52.160;20.910;2024-01-06T12:35:30;12.17;;;5.70;;
21170;SDS011;10743;52.160;20.910;2024-01-06T12:37:57;10.53;;;5.20;;
21170;SDS011;10743;52.160;20.910;2024-01-06T12:40:24;15.07;;;5.63;;
21170;SDS011;10743;52.160;20.910;2024-01-06T12:42:52;12.70;;;5.63;;
21170;SDS011;10743;52.160;20.910;2024-01-06T12:45:20;14.17;;;5.17;;
21170;SDS011;10743;52.160;20.910;2024-01-06T12:47:47;15.03;;;5.27;;
21170;SDS011;10743;52.160;20.910;2024-01-06T12:50:14;15.03;;;4.97;;
21170;SDS011;10743;52.160;20.910;2024-01-06T12:52:41;12.90;;;4.80;;
21170;SDS011;10743;52.160;20.910;2024-01-06T12:55:09;10.30;;;4.63;;
21170;SDS011;10743;52.160;20.910;2024-01-06T12:57:36;11.53;;;5.50;;
21170;SDS011;10743;52.160;20.910;2024-01-06T13:00:04;13.33;;;5.10;;
21170;SDS011;10743;52.160;20.910;2024-01-06T13:02:34;12.53;;;5.07;;
21170;SDS011;10743;52.160;20.910;2024-01-06T13:05:01;10.07;;;4.87;;
21170;SDS011;10743;52.160;20.910;2024-01-06T13:07:28;15.97;;;5.23;;
21170;SDS011;10743;52.160;20.910;2024-01-06T13:09:55;14.50;;;5.03;;
21170;SDS011;10743;52.160;20.910;2024-01-06T13:12:22;15.17;;;4.90;;
21170;SDS011;10743;52.160;20.910;2024-01-06T13:14:50;10.73;;;4.77;;
21170;SDS011;10743;52.160;20.910;2024-01-06T13:17:17;9.50;;;4.03;;
21170;SDS011;10743;52.160;20.910;2024-01-06T13:19:44;9.07;;;4.67;;
21170;SDS011;10743;52.160;20.910;2024-01-06T13:22:11;11.97;;;4.80;;
21170;SDS011;10743;52.160;20.910;2024-01-06T13:24:39;11.90;;;4.40;;
21170;SDS011;10743;52.160;20.910;2024-01-06T13:27:07;13.70;;;4.40;;
21170;SDS011;10743;52.160;20.910;2024-01-06T13:29:34;13.27;;;4.97;;
21170;SDS011;10743;52.160;20.910;2024-01-06T13:32:01;11.43;;;4.50;;
21170;SDS011;10743;52.160;20.910;2024-01-06T13:34:29;11.60;;;4.70;;
21170;SDS011;10743;52.160;20.910;2024-01-06T13:36:56;10.77;;;4.30;;
21170;SDS011;10743;52.160;20.910;2024-01-06T13:39:24;11.37;;;4.47;;
21170;SDS011;10743;52.160;20.910;2024-01-06T13:41:51;12.50;;;4.67;;
21170;SDS011;10743;52.160;20.910;2024-01-06T13:44:18;12.37;;;4.80;;
21170;SDS011;10743;52.160;20.910;2024-01-06T13:46:45;10.87;;;5.03;;
21170;SDS011;10743;52.160;20.910;2024-01-06T13:49:13;11.63;;;4.33;;
21170;SDS011;10743;52.160;20.910;2024-01-06T13:51:41;10.30;;;4.80;;
21170;SDS011;10743;52.160;20.910;2024-01-06T13:54:08;10.23;;;4.27;;
21170;SDS011;10743;52.160;20.910;2024-01-06T13:56:36;10.73;;;4.20;;
21170;SDS011;10743;52.160;20.910;2024-01-06T13:59:03;10.23;;;5.13;;
21170;SDS011;10743;52.160;20.910;2024-01-06T14:01:30;10.03;;;4.10;;
21170;SDS011;10743;52.160;20.910;2024-01-06T14:03:58;9.53;;;4.47;;
21170;SDS011;10743;52.160;20.910;2024-01-06T14:06:26;11.97;;;4.47;;
21170;SDS011;10743;52.160;20.910;2024-01-06T14:08:57;7.90;;;3.53;;
21170;SDS011;10743;52.160;20.910;2024-01-06T14:11:25;6.73;;;3.63;;
21170;SDS011;10743;52.160;20.910;2024-01-06T14:13:53;8.77;;;4.00;;
21170;SDS011;10743;52.160;20.910;2024-01-06T14:16:20;10.00;;;4.53;;
21170;SDS011;10743;52.160;20.910;2024-01-06T14:18:47;9.13;;;4.27;;
21170;SDS011;10743;52.160;20.910;2024-01-06T14:21:15;10.00;;;4.03;;
21170;SDS011;10743;52.160;20.910;2024-01-06T14:23:45;9.27;;;3.80;;
21170;SDS011;10743;52.160;20.910;2024-01-06T14:26:15;7.43;;;3.40;;